Time;durP1;ratioP1;P1;durP2;ratioP2;P2;SDS_P1;SDS_P2;PMS_P1;PMS_P2;Temp;Humidity;BMP_temperature;BMP_pressure;BME280_temperature;BME280_humidity;BME280_pressure;Samples;Min_cycle;Max_cycle;Signal;HPM_P1;HPM_P2
2022/05/24 00:01:17;;;;;;;;;;;;;;;18.15;45.50;100482.28;5063893;28;827;-63
2022/05/24 00:03:43;;;;;;;;;;;;;;;18.11;45.43;100483.97;5062388;28;795;-63
2022/05/24 00:06:08;;;;;;;;;;;;;;;18.16;45.67;100474.84;5057339;28;779;-64
2022/05/24 00:08:35;;;;;;;;;;;;;;;18.14;45.40;100475.13;5057178;28;830;-62
2022/05/24 00:11:01;;;;;;;;;;;;;;;18.13;45.13;100477.06;5057390;28;754;-63
2022/05/24 00:13:26;;;;;;;;;;;;;;;18.08;45.29;100485.38;5057301;28;833;-62
2022/05/24 00:15:51;;;;;;;;;;;;;;;18.08;44.99;100482.63;5058356;28;1111;-63
2022/05/24 00:18:21;;;;;;;;;;;;;;;18.11;44.91;100506.00;5057318;28;1914;-61
2022/05/24 00:20:47;;;;;;;;;;;;;;;18.06;44.81;100498.63;5057281;28;763;-63
2022/05/24 00:23:12;;;;;;;;;;;;;;;18.08;44.68;100496.38;5057213;28;878;-63
2022/05/24 00:25:39;;;;;;;;;;;;;;;18.09;44.55;100487.03;5057655;28;830;-61
2022/05/24 00:28:05;;;;;;;;;;;;;;;18.05;44.50;100491.47;5060343;28;782;-62
2022/05/24 00:30:30;;;;;;;;;;;;;;;18.00;44.43;100498.94;5040737;28;1090;-64
2022/05/24 00:32:56;;;;;;;;;;;;;;;18.03;44.27;100485.41;5057148;28;821;-64
2022/05/24 00:35:22;;;;;;;;;;;;;;;18.00;44.36;100480.50;5057135;28;794;-63
2022/05/24 00:37:47;;;;;;;;;;;;;;;17.99;44.32;100492.59;5057291;28;782;-62
2022/05/24 00:40:20;;;;;;;;;;;;;;;18.07;43.74;100489.22;5038452;28;1906;-63
2022/05/24 00:42:46;;;;;;;;;;;;;;;18.02;44.11;100474.69;5058738;28;873;-62
2022/05/24 00:45:13;;;;;;;;;;;;;;;18.01;44.03;100482.16;5038900;28;853;-64
2022/05/24 00:47:43;;;;;;;;;;;;;;;18.02;43.80;100488.47;5045756;28;1308;-63
2022/05/24 00:50:10;;;;;;;;;;;;;;;17.95;44.04;100481.38;5039180;28;809;-62
2022/05/24 00:52:50;;;;;;;;;;;;;;;17.95;44.28;100483.31;5057019;28;780;-62
2022/05/24 00:55:16;;;;;;;;;;;;;;;17.95;44.15;100484.13;5044362;28;901;-63
2022/05/24 00:58:01;;;;;;;;;;;;;;;17.93;44.00;100483.59;5056526;28;806;-64
2022/05/24 01:00:26;;;;;;;;;;;;;;;17.95;44.13;100477.81;5066110;28;1906;-63
2022/05/24 01:02:52;;;;;;;;;;;;;;;17.94;44.20;100484.41;5075977;28;757;-65
2022/05/24 01:05:18;;;;;;;;;;;;;;;18.00;44.19;100482.44;5056735;28;794;-64
2022/05/24 01:07:45;;;;;;;;;;;;;;;17.94;44.26;100484.41;5063372;28;910;-64
2022/05/24 01:10:17;;;;;;;;;;;;;;;17.97;44.31;100491.28;5056385;28;833;-62
2022/05/24 01:12:48;;;;;;;;;;;;;;;17.98;44.29;100481.91;5069531;28;818;-64
2022/05/24 01:15:14;;;;;;;;;;;;;;;18.04;44.35;100487.06;5056375;28;1037;-62
2022/05/24 01:17:39;;;;;;;;;;;;;;;18.02;44.38;100492.06;5062695;28;886;-62
2022/05/24 01:20:05;;;;;;;;;;;;;;;18.02;44.45;100500.31;5044125;28;1914;-62
2022/05/24 01:22:49;;;;;;;;;;;;;;;18.06;44.74;100495.88;5056800;28;892;-61
2022/05/24 01:25:14;;;;;;;;;;;;;;;18.04;44.67;100489.81;5070619;28;849;-61
2022/05/24 01:27:40;;;;;;;;;;;;;;;18.07;44.84;100483.72;5075780;28;786;-61
2022/05/24 01:30:06;;;;;;;;;;;;;;;18.10;44.44;100494.16;5057034;28;970;-62
2022/05/24 01:38:02;;;;;;;;;;;;;;;18.08;44.73;100490.88;5056087;28;802;-62
2022/05/24 01:40:27;;;;;;;;;;;;;;;18.04;45.03;100484.31;5056134;28;1989;-62
2022/05/24 01:42:53;;;;;;;;;;;;;;;18.13;44.83;100488.06;5038669;28;797;-61
2022/05/24 01:45:19;;;;;;;;;;;;;;;18.11;44.64;100484.78;5055596;28;807;-61
2022/05/24 01:47:45;;;;;;;;;;;;;;;18.09;44.87;100475.16;5044808;28;869;-62
2022/05/24 01:50:11;;;;;;;;;;;;;;;18.05;44.85;100488.72;5038370;28;758;-63
2022/05/24 01:52:56;;;;;;;;;;;;;;;18.10;44.75;100494.16;5041100;28;746;-61
2022/05/24 01:55:41;;;;;;;;;;;;;;;18.10;44.55;100504.34;5042193;28;823;-63
2022/05/24 01:58:08;;;;;;;;;;;;;;;18.08;44.79;100481.81;5052074;28;1470;-63
2022/05/24 02:00:33;;;;;;;;;;;;;;;18.02;44.41;100489.28;5060639;28;930;-63
2022/05/24 02:02:59;;;;;;;;;;;;;;;17.93;43.82;100480.03;5061549;28;787;-62
2022/05/24 02:05:38;;;;;;;;;;;;;;;17.72;42.86;100482.91;5071866;28;875;-63
2022/05/24 02:08:04;;;;;;;;;;;;;;;17.55;41.66;100493.53;5059641;28;1518;-63
2022/05/24 02:10:31;;;;;;;;;;;;;;;17.40;41.10;100487.06;5059639;28;825;-62
2022/05/24 02:12:57;;;;;;;;;;;;;;;17.26;40.99;100480.53;5041538;28;1098;-61
2022/05/24 02:15:27;;;;;;;;;;;;;;;17.24;40.45;100475.31;5060432;28;973;-62
2022/05/24 02:17:54;;;;;;;;;;;;;;;17.13;40.15;100475.69;5046574;28;825;-64
2022/05/24 02:20:20;;;;;;;;;;;;;;;17.03;40.05;100487.56;5041996;28;1910;-62
2022/05/24 02:22:46;;;;;;;;;;;;;;;17.01;39.85;100485.09;5044892;28;922;-61
2022/05/24 02:25:49;;;;;;;;;;;;;;;16.95;39.63;100488.97;5059603;28;859;-62
2022/05/24 02:28:15;;;;;;;;;;;;;;;16.98;40.50;100484.84;4978648;28;1490;-63
2022/05/24 02:30:45;;;;;;;;;;;;;;;17.15;41.14;100489.94;4983338;28;881;-63
2022/05/24 02:33:10;;;;;;;;;;;;;;;17.44;43.20;100488.09;5019755;28;1101;-64
2022/05/24 02:35:35;;;;;;;;;;;;;;;17.76;45.19;100489.47;5078064;28;842;-63
2022/05/24 02:38:01;;;;;;;;;;;;;;;18.04;46.20;100503.56;5060670;28;852;-64
2022/05/24 02:43:10;;;;;;;;;;;;;;;18.44;47.94;100500.69;5072165;28;822;-64
2022/05/24 02:45:36;;;;;;;;;;;;;;;18.60;48.71;100502.13;5072692;28;955;-62
2022/05/24 02:48:01;;;;;;;;;;;;;;;18.62;48.86;100493.56;5077576;28;831;-65
2022/05/24 02:50:28;;;;;;;;;;;;;;;18.47;48.38;100487.16;5059353;28;808;-62
2022/05/24 02:52:53;;;;;;;;;;;;;;;18.28;47.03;100489.03;5058717;28;925;-63
2022/05/24 02:55:23;;;;;;;;;;;;;;;18.04;45.52;100495.31;5058761;28;825;-65
2022/05/24 02:57:48;;;;;;;;;;;;;;;17.79;43.95;100497.19;5059396;28;762;-63
2022/05/24 03:00:15;;;;;;;;;;;;;;;17.59;42.75;100483.59;5058429;28;1930;-64
2022/05/24 03:02:41;;;;;;;;;;;;;;;17.45;41.62;100481.50;5058852;28;833;-63
2022/05/24 03:05:07;;;;;;;;;;;;;;;17.28;41.16;100481.09;5058680;28;862;-63
2022/05/24 03:10:17;;;;;;;;;;;;;;;17.18;40.02;100486.63;5058553;28;1542;-64
2022/05/24 03:15:26;;;;;;;;;;;;;;;16.94;40.02;100473.59;5066963;28;1002;-63
2022/05/24 03:17:52;;;;;;;;;;;;;;;16.95;39.58;100488.97;5058367;28;1512;-63
2022/05/24 03:20:17;;;;;;;;;;;;;;;16.83;39.80;100489.28;5058659;28;1979;-64
2022/05/24 03:22:42;;;;;;;;;;;;;;;16.87;40.00;100489.53;5058491;28;829;-62
2022/05/24 03:25:09;;;;;;;;;;;;;;;17.01;40.92;100498.84;5058428;28;742;-63
2022/05/24 03:27:35;;;;;;;;;;;;;;;17.15;42.18;100503.69;5064855;28;882;-62
2022/05/24 03:30:01;;;;;;;;;;;;;;;17.31;43.06;100498.94;5070513;28;902;-63
2022/05/24 03:32:26;;;;;;;;;;;;;;;17.36;43.60;100496.97;5077040;28;826;-63
2022/05/24 03:34:52;;;;;;;;;;;;;;;17.45;44.05;100508.16;5077364;28;940;-63
2022/05/24 03:37:17;;;;;;;;;;;;;;;17.51;44.16;100509.75;5077223;28;857;-63
2022/05/24 03:39:43;;;;;;;;;;;;;;;17.49;44.84;100514.75;5071959;28;1913;-63
2022/05/24 03:42:08;;;;;;;;;;;;;;;17.64;44.59;100515.72;5057736;28;839;-63
2022/05/24 03:44:34;;;;;;;;;;;;;;;17.68;45.00;100514.84;5057974;28;802;-64
2022/05/24 03:46:59;;;;;;;;;;;;;;;17.75;44.65;100520.88;5064290;28;940;-65
2022/05/24 03:49:24;;;;;;;;;;;;;;;17.76;44.91;100517.00;5061472;28;798;-64
2022/05/24 03:51:50;;;;;;;;;;;;;;;17.76;44.94;100522.50;5073531;28;875;-64
2022/05/24 03:54:16;;;;;;;;;;;;;;;17.81;45.17;100520.81;5057790;28;822;-62
2022/05/24 03:58:00;;;;;;;;;;;;;;;17.84;45.35;100523.81;5057613;28;1058;-63
2022/05/24 03:59:30;;;;;;;;;;;;;;;17.86;45.03;100510.56;5057887;28;1890;-62
2022/05/24 04:01:55;;;;;;;;;;;;;;;17.85;45.04;100505.38;5072235;28;898;-61
2022/05/24 04:04:20;;;;;;;;;;;;;;;17.87;45.04;100514.16;5061919;28;1035;-60
2022/05/24 04:06:46;;;;;;;;;;;;;;;17.85;45.16;100519.13;5059251;28;891;-63
2022/05/24 04:09:11;;;;;;;;;;;;;;;17.89;45.20;100526.53;5057644;28;887;-62
2022/05/24 04:11:37;;;;;;;;;;;;;;;17.98;44.93;100521.25;5057035;28;743;-61
2022/05/24 04:14:03;;;;;;;;;;;;;;;17.89;45.41;100521.03;5056194;28;996;-61
2022/05/24 04:16:29;;;;;;;;;;;;;;;17.91;45.14;100512.50;5059481;28;786;-63
2022/05/24 04:18:54;;;;;;;;;;;;;;;17.97;45.02;100518.78;5058274;28;1960;-60
2022/05/24 04:21:19;;;;;;;;;;;;;;;17.98;45.28;100521.25;5057506;28;806;-60
2022/05/24 04:23:45;;;;;;;;;;;;;;;18.04;45.05;100524.78;5057063;28;1524;-61
2022/05/24 04:26:10;;;;;;;;;;;;;;;18.02;45.13;100522.31;5057143;28;750;-61
2022/05/24 04:28:36;;;;;;;;;;;;;;;18.08;44.75;100529.41;5057533;28;804;-61
2022/05/24 04:31:01;;;;;;;;;;;;;;;18.06;44.87;100526.13;5060744;28;951;-61
2022/05/24 04:33:27;;;;;;;;;;;;;;;18.10;44.82;100529.09;5057249;28;741;-59
2022/05/24 04:35:53;;;;;;;;;;;;;;;18.09;45.16;100525.53;5057396;28;921;-58
2022/05/24 04:38:18;;;;;;;;;;;;;;;18.05;45.23;100526.41;5056672;28;1915;-61
2022/05/24 04:43:28;;;;;;;;;;;;;;;18.15;45.13;100525.50;5063028;28;831;-59
2022/05/24 04:45:55;;;;;;;;;;;;;;;18.16;45.22;100516.13;5058684;28;873;-61
2022/05/24 04:48:23;;;;;;;;;;;;;;;18.20;45.07;100519.94;5075834;28;814;-59
2022/05/24 04:50:52;;;;;;;;;;;;;;;18.21;45.35;100522.38;5076610;28;869;-60
2022/05/24 04:53:18;;;;;;;;;;;;;;;18.21;45.13;100516.06;5075787;28;801;-60
2022/05/24 04:55:43;;;;;;;;;;;;;;;18.19;45.40;100518.28;5073285;28;772;-61
2022/05/24 04:58:11;;;;;;;;;;;;;;;18.23;45.07;100520.19;5056870;28;797;-60
2022/05/24 05:00:37;;;;;;;;;;;;;;;18.18;45.16;100527.66;5060346;28;1906;-61
2022/05/24 05:03:06;;;;;;;;;;;;;;;18.12;44.59;100533.22;5056834;28;817;-59
2022/05/24 05:05:33;;;;;;;;;;;;;;;17.97;43.27;100533.34;5057017;28;809;-60
2022/05/24 05:07:58;;;;;;;;;;;;;;;17.79;42.34;100541.19;5057333;28;833;-59
2022/05/24 05:10:24;;;;;;;;;;;;;;;17.60;41.64;100540.25;5056576;28;903;-59
2022/05/24 05:12:49;;;;;;;;;;;;;;;17.49;40.74;100544.13;5056387;28;975;-59
2022/05/24 05:15:15;;;;;;;;;;;;;;;17.35;40.44;100544.78;5056141;28;1120;-59
2022/05/24 05:17:40;;;;;;;;;;;;;;;17.33;39.93;100557.97;5062846;28;754;-60
2022/05/24 05:20:06;;;;;;;;;;;;;;;17.18;39.91;100553.41;5056645;28;1974;-59
2022/05/24 05:22:31;;;;;;;;;;;;;;;17.08;39.87;100546.03;5060458;28;817;-59
2022/05/24 05:24:57;;;;;;;;;;;;;;;17.04;39.48;100550.47;5056501;28;878;-58
2022/05/24 05:27:22;;;;;;;;;;;;;;;16.99;39.74;100558.72;5059030;28;842;-60
2022/05/24 05:32:32;;;;;;;;;;;;;;;16.92;39.82;100558.19;5074466;28;830;-59
2022/05/24 05:34:57;;;;;;;;;;;;;;;17.11;40.94;100566.63;5071494;28;851;-59
2022/05/24 05:37:23;;;;;;;;;;;;;;;17.27;41.88;100565.44;5060202;28;789;-59
2022/05/24 05:39:51;;;;;;;;;;;;;;;17.36;43.04;100568.44;5060766;28;1970;-59
2022/05/24 05:42:17;;;;;;;;;;;;;;;17.46;43.38;100573.03;5060245;28;834;-59
2022/05/24 05:44:42;;;;;;;;;;;;;;;17.55;43.87;100562.25;5060317;28;790;-59
2022/05/24 05:47:08;;;;;;;;;;;;;;;17.64;44.39;100562.47;5066572;28;867;-59
2022/05/24 05:49:33;;;;;;;;;;;;;;;17.74;44.66;100563.22;5060073;28;738;-59
2022/05/24 05:51:59;;;;;;;;;;;;;;;17.74;45.12;100565.13;5060120;28;865;-59
2022/05/24 05:54:24;;;;;;;;;;;;;;;17.78;45.04;100569.78;5059791;28;822;-60
2022/05/24 05:56:50;;;;;;;;;;;;;;;17.76;45.35;100563.75;5059771;28;1545;-60
2022/05/24 05:59:15;;;;;;;;;;;;;;;17.84;45.50;100565.06;5059751;28;1930;-58
2022/05/24 06:01:42;;;;;;;;;;;;;;;17.89;45.67;100561.44;5063210;28;797;-59
2022/05/24 06:04:08;;;;;;;;;;;;;;;17.94;45.86;100566.94;5059760;28;879;-60
2022/05/24 06:06:34;;;;;;;;;;;;;;;17.98;45.92;100568.00;5060292;28;919;-60
2022/05/24 06:08:59;;;;;;;;;;;;;;;17.97;45.67;100569.13;5059877;28;811;-59
2022/05/24 06:11:25;;;;;;;;;;;;;;;17.96;45.96;100564.72;5059818;28;854;-59
2022/05/24 06:13:51;;;;;;;;;;;;;;;18.04;45.93;100574.28;5062701;28;1072;-60
2022/05/24 06:16:17;;;;;;;;;;;;;;;18.04;45.73;100577.84;5060380;28;866;-60
2022/05/24 06:18:44;;;;;;;;;;;;;;;18.06;45.64;100574.81;5059574;28;1917;-61
2022/05/24 06:21:10;;;;;;;;;;;;;;;18.03;45.71;100570.69;5062264;28;851;-60
2022/05/24 06:23:35;;;;;;;;;;;;;;;18.10;45.95;100576.72;5059315;28;861;-60
2022/05/24 06:26:01;;;;;;;;;;;;;;;18.11;45.79;100575.59;5065614;28;886;-61
2022/05/24 06:28:26;;;;;;;;;;;;;;;18.13;46.12;100576.13;5059510;28;822;-61
2022/05/24 06:30:52;;;;;;;;;;;;;;;18.16;46.17;100574.75;5065728;28;869;-61
2022/05/24 06:33:19;;;;;;;;;;;;;;;18.16;46.05;100568.41;5059392;28;848;-61
2022/05/24 06:35:45;;;;;;;;;;;;;;;18.23;45.88;100582.63;5058785;28;830;-60
2022/05/24 06:38:10;;;;;;;;;;;;;;;18.17;45.59;100575.56;5069588;28;1150;-62
2022/05/24 06:40:36;;;;;;;;;;;;;;;18.02;45.14;100571.84;5059298;28;1976;-61
2022/05/24 06:43:02;;;;;;;;;;;;;;;17.89;43.62;100580.69;5059113;28;968;-61
2022/05/24 06:45:29;;;;;;;;;;;;;;;17.66;42.91;100585.00;5057603;28;945;-61
2022/05/24 06:47:54;;;;;;;;;;;;;;;17.45;41.86;100587.88;5059074;28;966;-60
2022/05/24 06:50:20;;;;;;;;;;;;;;;17.38;41.43;100576.38;5060203;28;869;-60
2022/05/24 06:52:47;;;;;;;;;;;;;;;17.21;41.02;100576.75;5058937;28;766;-61
2022/05/24 06:55:12;;;;;;;;;;;;;;;17.17;40.60;100589.41;5059023;28;828;-60
2022/05/24 06:57:38;;;;;;;;;;;;;;;17.12;40.41;100592.19;5059205;28;814;-61
2022/05/24 07:02:49;;;;;;;;;;;;;;;16.95;39.62;100585.09;5058626;28;795;-61
2022/05/24 07:05:16;;;;;;;;;;;;;;;17.04;40.54;100583.44;5064923;28;848;-61
2022/05/24 07:07:41;;;;;;;;;;;;;;;17.30;42.33;100591.53;5058621;28;886;-61
2022/05/24 07:10:08;;;;;;;;;;;;;;;17.66;44.20;100594.06;5058550;28;814;-60
2022/05/24 07:12:34;;;;;;;;;;;;;;;17.99;45.91;100597.16;5058637;28;792;-62
2022/05/24 07:14:59;;;;;;;;;;;;;;;18.22;47.13;100597.53;5057938;28;1117;-62
2022/05/24 07:17:25;;;;;;;;;;;;;;;18.43;48.06;100598.97;5065009;28;781;-60
2022/05/24 07:19:50;;;;;;;;;;;;;;;18.54;48.99;100596.13;5058289;28;1914;-61
2022/05/24 07:22:16;;;;;;;;;;;;;;;18.66;49.12;100592.97;5058713;28;831;-61
2022/05/24 07:24:41;;;;;;;;;;;;;;;18.44;48.35;100597.06;5058717;28;876;-62
2022/05/24 07:27:10;;;;;;;;;;;;;;;18.17;46.80;100600.31;5058304;28;920;-61
2022/05/24 07:29:35;;;;;;;;;;;;;;;17.90;45.08;100596.09;5062679;28;789;-61
2022/05/24 07:32:01;;;;;;;;;;;;;;;17.74;43.36;100595.38;5064114;28;842;-60
2022/05/24 07:34:27;;;;;;;;;;;;;;;17.50;42.13;100596.13;5058072;28;861;-61
2022/05/24 07:36:52;;;;;;;;;;;;;;;17.35;41.36;100601.66;5057628;28;889;-60
2022/05/24 07:39:18;;;;;;;;;;;;;;;17.22;40.90;100597.63;5058237;28;1897;-61
2022/05/24 07:47:11;;;;;;;;;;;;;;;16.98;39.46;100613.94;5071128;28;990;-62
2022/05/24 07:49:37;;;;;;;;;;;;;;;16.91;39.38;100605.97;5075917;28;858;-61
2022/05/24 07:52:04;;;;;;;;;;;;;;;17.06;40.30;100600.44;5077458;28;781;-61
2022/05/24 07:54:29;;;;;;;;;;;;;;;17.28;42.12;100611.06;5064031;28;791;-61
2022/05/24 07:56:55;;;;;;;;;;;;;;;17.56;44.62;100616.16;5057308;28;936;-62
2022/05/24 07:59:20;;;;;;;;;;;;;;;17.90;46.01;100612.63;5057724;28;1902;-61
2022/05/24 08:01:46;;;;;;;;;;;;;;;18.13;47.47;100616.56;5059855;28;842;-61
2022/05/24 08:04:11;;;;;;;;;;;;;;;18.31;48.60;100606.78;5057609;28;855;-62
2022/05/24 08:06:37;;;;;;;;;;;;;;;18.49;49.21;100607.19;5062194;28;877;-61
2022/05/24 08:09:03;;;;;;;;;;;;;;;18.60;49.71;100604.03;5059380;28;821;-63
2022/05/24 08:11:28;;;;;;;;;;;;;;;18.73;49.88;100616.31;5057438;28;826;-61
2022/05/24 08:13:53;;;;;;;;;;;;;;;18.61;48.96;100607.63;5057356;28;1060;-61
2022/05/24 08:16:19;;;;;;;;;;;;;;;18.45;47.61;100615.19;5066764;28;890;-58
2022/05/24 08:18:44;;;;;;;;;;;;;;;18.20;46.36;100621.75;5076372;28;1906;-59
2022/05/24 08:21:10;;;;;;;;;;;;;;;18.00;44.43;100618.06;5060509;28;714;-60
2022/05/24 08:23:35;;;;;;;;;;;;;;;17.74;43.14;100629.22;5057399;28;811;-61
2022/05/24 08:26:01;;;;;;;;;;;;;;;17.65;42.29;100625.41;5057341;28;765;-59
2022/05/24 08:28:26;;;;;;;;;;;;;;;17.47;41.36;100621.41;5038940;28;848;-59
2022/05/24 08:30:53;;;;;;;;;;;;;;;17.42;40.97;100627.75;5062710;28;754;-59
2022/05/24 08:33:20;;;;;;;;;;;;;;;17.26;40.73;100626.19;5063362;28;907;-59
2022/05/24 08:35:46;;;;;;;;;;;;;;;17.19;40.26;100611.91;5057094;28;885;-60
2022/05/24 08:38:14;;;;;;;;;;;;;;;17.12;40.22;100619.66;5056992;28;882;-60
2022/05/24 08:40:41;;;;;;;;;;;;;;;17.08;40.06;100614.72;5057217;28;1977;-60
2022/05/24 08:43:16;;;;;;;;;;;;;;;17.02;39.75;100626.00;5057058;28;781;-61
2022/05/24 08:48:57;;;;;;;;;;;;;;;16.89;40.41;100608.19;5062668;28;770;-62
2022/05/24 08:51:28;;;;;;;;;;;;;;;17.19;42.04;100606.44;5038976;28;808;-61
2022/05/24 08:53:55;;;;;;;;;;;;;;;17.55;44.21;100623.56;5056727;28;841;-61
2022/05/24 08:56:34;;;;;;;;;;;;;;;17.84;45.78;100619.25;5039316;28;1022;-63
2022/05/24 08:59:01;;;;;;;;;;;;;;;18.05;47.25;100609.78;5039629;28;1918;-62
2022/05/24 09:01:29;;;;;;;;;;;;;;;18.21;48.09;100609.63;5057985;28;921;-63
2022/05/24 09:03:55;;;;;;;;;;;;;;;18.41;48.54;100614.13;5056763;28;809;-62
2022/05/24 09:06:26;;;;;;;;;;;;;;;18.52;49.18;100612.91;5056757;28;769;-62
2022/05/24 09:08:52;;;;;;;;;;;;;;;18.69;49.15;100606.13;5056783;28;825;-62
2022/05/24 09:11:17;;;;;;;;;;;;;;;18.59;48.85;100607.06;5062340;28;850;-63
2022/05/24 09:14:00;;;;;;;;;;;;;;;18.41;47.39;100597.59;5056304;28;1026;-60
2022/05/24 09:16:36;;;;;;;;;;;;;;;18.13;46.05;100611.91;5038904;28;911;-60
2022/05/24 09:19:10;;;;;;;;;;;;;;;17.92;44.15;100608.50;5056040;28;1906;-61
2022/05/24 09:21:39;;;;;;;;;;;;;;;17.75;42.71;100608.88;5052326;28;845;-59
2022/05/24 09:24:17;;;;;;;;;;;;;;;17.51;42.30;100607.91;5061605;28;889;-62
2022/05/24 09:27:01;;;;;;;;;;;;;;;17.40;41.42;100613.47;5055971;28;861;-60
2022/05/24 09:29:27;;;;;;;;;;;;;;;17.30;40.78;100607.22;5056363;28;720;-61
2022/05/24 09:31:52;;;;;;;;;;;;;;;17.27;40.47;100608.59;5061527;28;782;-61
2022/05/24 09:34:18;;;;;;;;;;;;;;;17.15;40.43;100614.41;5056393;28;755;-61
2022/05/24 09:36:54;;;;;;;;;;;;;;;17.09;40.30;100619.09;5062323;28;833;-62
2022/05/24 09:39:26;;;;;;;;;;;;;;;17.03;40.23;100616.66;5056135;28;1969;-61
2022/05/24 09:41:58;;;;;;;;;;;;;;;16.91;40.10;100614.22;5056570;28;958;-62
2022/05/24 09:44:24;;;;;;;;;;;;;;;16.98;40.62;100613.94;5056213;28;920;-62
2022/05/24 09:46:49;;;;;;;;;;;;;;;17.24;42.53;100617.41;5059260;28;850;-62
2022/05/24 09:49:15;;;;;;;;;;;;;;;17.57;44.13;100629.59;5062336;28;878;-62
2022/05/24 09:51:41;;;;;;;;;;;;;;;17.88;45.96;100628.56;5056372;28;798;-62
2022/05/24 09:54:13;;;;;;;;;;;;;;;18.16;47.55;100624.28;5056186;28;845;-63
2022/05/24 09:56:39;;;;;;;;;;;;;;;18.41;48.30;100630.66;5056052;28;866;-63
2022/05/24 09:59:05;;;;;;;;;;;;;;;18.53;49.42;100616.50;5067589;28;1984;-63
2022/05/24 10:01:35;;;;;;;;;;;;;;;18.72;49.61;100620.16;5068231;28;835;-62
2022/05/24 10:04:14;;;;;;;;;;;;;;;18.80;49.88;100615.94;5056073;28;853;-62
2022/05/24 10:06:41;;;;;;;;;;;;;;;18.55;48.90;100614.28;5076041;28;894;-61
2022/05/24 10:09:18;;;;;;;;;;;;;;;18.37;47.31;100619.41;5075249;28;862;-62
2022/05/24 10:11:47;;;;;;;;;;;;;;;18.12;44.96;100610.25;5075464;28;734;-60
2022/05/24 10:14:17;;;;;;;;;;;;;;;17.94;43.65;100605.47;5070755;28;1197;-61
2022/05/24 10:16:52;;;;;;;;;;;;;;;17.72;42.42;100603.91;5051725;28;998;-61
2022/05/24 10:19:25;;;;;;;;;;;;;;;17.55;41.62;100603.50;5059327;28;1897;-61
2022/05/24 10:21:56;;;;;;;;;;;;;;;17.42;41.32;100616.75;5059650;28;869;-61
2022/05/24 10:24:51;;;;;;;;;;;;;;;17.38;40.61;100612.94;5059496;28;861;-61
2022/05/24 10:27:29;;;;;;;;;;;;;;;17.31;40.25;100617.09;4994809;28;1182;-61
2022/05/24 10:29:58;;;;;;;;;;;;;;;17.16;39.84;100605.06;5060983;28;786;-61
2022/05/24 10:38:34;;;;;;;;;;;;;;;16.93;40.08;100620.28;5078289;28;837;-57
2022/05/24 10:41:00;;;;;;;;;;;;;;;17.19;41.42;100617.41;5058999;28;814;-58
2022/05/24 10:43:25;;;;;;;;;;;;;;;17.56;43.69;100619.69;5059118;28;821;-56
2022/05/24 10:46:01;;;;;;;;;;;;;;;17.90;45.79;100618.13;5061487;28;808;-56
2022/05/24 10:48:33;;;;;;;;;;;;;;;18.16;47.35;100620.69;5042404;28;850;-56
2022/05/24 10:51:19;;;;;;;;;;;;;;;18.41;48.24;100614.97;5058871;28;924;-57
2022/05/24 10:53:47;;;;;;;;;;;;;;;18.56;49.29;100632.44;5062635;28;1209;-58
2022/05/24 10:56:21;;;;;;;;;;;;;;;18.67;49.50;100628.47;5078058;28;817;-57
2022/05/24 10:58:46;;;;;;;;;;;;;;;18.61;48.89;100621.38;5060173;28;1960;-58
2022/05/24 11:01:18;;;;;;;;;;;;;;;18.39;47.37;100627.38;5069263;28;946;-56
2022/05/24 11:03:48;;;;;;;;;;;;;;;18.19;45.88;100623.69;5058317;28;815;-59
2022/05/24 11:06:38;;;;;;;;;;;;;;;17.94;44.07;100630.22;5043333;28;1084;-57
2022/05/24 11:09:05;;;;;;;;;;;;;;;17.72;42.80;100631.41;5049292;28;1063;-56
2022/05/24 11:11:40;;;;;;;;;;;;;;;17.61;42.03;100633.44;5041011;28;782;-56
2022/05/24 11:14:24;;;;;;;;;;;;;;;17.45;41.27;100629.94;5071699;28;1449;-57
2022/05/24 11:16:50;;;;;;;;;;;;;;;17.33;40.79;100628.63;5066039;28;784;-58
2022/05/24 11:19:31;;;;;;;;;;;;;;;17.29;40.37;100625.59;5044300;28;1910;-57
2022/05/24 11:22:16;;;;;;;;;;;;;;;17.22;40.29;100627.84;5040540;28;754;-57
2022/05/24 11:25:00;;;;;;;;;;;;;;;17.13;39.99;100635.03;5058052;28;881;-55
2022/05/24 11:27:30;;;;;;;;;;;;;;;17.02;39.95;100629.56;5073050;28;930;-57
2022/05/24 11:29:57;;;;;;;;;;;;;;;17.04;39.90;100638.38;5075421;28;1059;-56
2022/05/24 11:32:35;;;;;;;;;;;;;;;16.97;40.05;100632.34;5062320;28;956;-57
2022/05/24 11:35:06;;;;;;;;;;;;;;;17.06;40.75;100633.41;5040927;28;883;-57
2022/05/24 11:37:35;;;;;;;;;;;;;;;17.18;41.74;100613.84;5040562;28;945;-57
2022/05/24 11:40:19;;;;;;;;;;;;;;;17.37;42.69;100608.53;5057377;28;1918;-57
2022/05/24 11:42:46;;;;;;;;;;;;;;;17.51;43.81;100607.91;5057946;28;858;-58
2022/05/24 11:45:43;;;;;;;;;;;;;;;17.60;44.19;100597.97;5066904;28;895;-58
2022/05/24 11:48:16;;;;;;;;;;;;;;;17.66;44.96;100604.25;5022830;28;1095;-59
2022/05/24 11:50:50;;;;;;;;;;;;;;;17.71;45.25;100594.03;5077246;28;745;-58
2022/05/24 11:53:19;;;;;;;;;;;;;;;17.77;45.32;100592.09;5077051;28;837;-58
2022/05/24 11:55:54;;;;;;;;;;;;;;;17.80;45.60;100594.25;5072686;28;826;-58
2022/05/24 11:58:21;;;;;;;;;;;;;;;17.89;45.46;100584.28;5058566;28;936;-57
2022/05/24 12:01:02;;;;;;;;;;;;;;;17.94;45.70;100589.75;5058007;28;1980;-58
2022/05/24 12:09:30;;;;;;;;;;;;;;;18.01;45.99;100567.44;5042040;28;813;-59
2022/05/24 12:12:14;;;;;;;;;;;;;;;18.05;45.87;100562.19;5021882;28;1473;-58
2022/05/24 12:14:39;;;;;;;;;;;;;;;18.08;46.02;100567.91;5076519;28;1172;-58
2022/05/24 12:17:04;;;;;;;;;;;;;;;18.11;45.92;100564.59;5065442;28;859;-58
2022/05/24 12:19:45;;;;;;;;;;;;;;;18.11;45.68;100567.34;5057229;28;1914;-59
2022/05/24 12:22:21;;;;;;;;;;;;;;;18.13;46.00;100561.53;5063655;28;1080;-59
2022/05/24 12:24:47;;;;;;;;;;;;;;;18.12;45.74;100559.91;5070330;28;733;-59
2022/05/24 12:27:14;;;;;;;;;;;;;;;18.18;45.83;100568.94;5076488;28;806;-57
2022/05/24 12:29:40;;;;;;;;;;;;;;;18.18;45.63;100567.00;5076045;28;738;-57
2022/05/24 12:32:06;;;;;;;;;;;;;;;18.20;45.90;100575.81;5063064;28;816;-59
2022/05/24 12:34:34;;;;;;;;;;;;;;;18.23;45.76;100568.88;5057129;28;826;-61
2022/05/24 12:37:00;;;;;;;;;;;;;;;18.27;45.65;100579.03;5056620;28;885;-59
2022/05/24 12:39:26;;;;;;;;;;;;;;;18.23;45.73;100574.38;5039436;28;2076;-59
2022/05/24 12:41:55;;;;;;;;;;;;;;;18.31;45.49;100576.50;5056820;28;900;-58
2022/05/24 12:44:21;;;;;;;;;;;;;;;18.28;45.65;100582.59;5038138;28;846;-61
2022/05/24 12:47:10;;;;;;;;;;;;;;;18.29;45.52;100584.25;5062540;28;862;-62
2022/05/24 12:49:48;;;;;;;;;;;;;;;18.32;45.41;100589.16;5043643;28;1526;-62
2022/05/24 12:52:14;;;;;;;;;;;;;;;18.28;45.39;100579.84;5056471;28;885;-62
2022/05/24 12:54:46;;;;;;;;;;;;;;;18.23;45.18;100588.13;5056112;28;765;-62
2022/05/24 12:57:35;;;;;;;;;;;;;;;18.08;44.30;100580.88;5056564;28;750;-60
2022/05/24 13:00:21;;;;;;;;;;;;;;;17.87;43.09;100582.94;5046706;28;1986;-62
2022/05/24 13:02:50;;;;;;;;;;;;;;;17.69;42.02;100582.50;5055680;28;1182;-61
2022/05/24 13:05:35;;;;;;;;;;;;;;;17.55;41.21;100598.00;5038733;28;1151;-62
2022/05/24 13:08:01;;;;;;;;;;;;;;;17.45;40.76;100596.13;5056464;28;853;-60
2022/05/24 13:10:27;;;;;;;;;;;;;;;17.38;40.32;100599.19;5056496;28;754;-60
2022/05/24 13:13:06;;;;;;;;;;;;;;;17.30;40.18;100594.28;5060275;28;918;-61
2022/05/24 13:15:50;;;;;;;;;;;;;;;17.19;39.97;100589.94;5055548;28;1128;-59
2022/05/24 13:18:16;;;;;;;;;;;;;;;17.26;39.51;100596.78;5038732;28;814;-60
2022/05/24 13:20:42;;;;;;;;;;;;;;;17.07;39.77;100599.34;5056323;28;1971;-60
2022/05/24 13:23:14;;;;;;;;;;;;;;;17.06;39.53;100608.66;5057886;28;700;-60
2022/05/24 13:25:42;;;;;;;;;;;;;;;17.16;40.59;100601.50;5061963;28;905;-61
2022/05/24 13:28:08;;;;;;;;;;;;;;;17.37;41.37;100608.53;5056598;28;723;-61
2022/05/24 13:33:33;;;;;;;;;;;;;;;17.58;43.20;100605.66;5056217;28;871;-60
2022/05/24 13:35:58;;;;;;;;;;;;;;;17.61;43.56;100608.69;5056340;28;841;-61
2022/05/24 13:38:27;;;;;;;;;;;;;;;17.63;43.75;100600.16;5061307;28;849;-61
2022/05/24 13:40:53;;;;;;;;;;;;;;;17.65;44.18;100599.84;5056114;28;1980;-61
2022/05/24 13:43:38;;;;;;;;;;;;;;;17.68;44.31;100594.59;5056077;28;934;-61
2022/05/24 13:46:07;;;;;;;;;;;;;;;17.72;44.54;100581.09;5059473;28;920;-60
2022/05/24 13:48:38;;;;;;;;;;;;;;;17.74;44.59;100587.13;5059139;28;795;-61